PWSweather.com
Personal Weather Stations
Station Observations
KMDSOLOM1
solomons, Solomons, MD 20688

solomonsSolomons, MD 20688

Lat: 38.32, Lon: -76.45

Elevation: 5

Station Type:

http://www.act-us.info/weather

Latest ConditionsUpdated 2:30:07 AM EST Saturday, Jan 18, 2020
Currently Today's Max Today's Min Today's Average
Temperature 30.6°F-0.8°C 30.6°F-0.8°C 29.8°F-1.2°C 30.2°F-1.0°C
Dew Point 18.0°F-7.8°C 18.2°F-7.7°C 16.5°F-8.6°C 17.3°F-8.2°C
Winds 10.0 mph NNW16.1 kmh NNW 11.0 mph -17.7 kmh - - 5.1 mph 8.2 kmh
Wind Gusts 12.0 mph19.3 kmh 14.0 mph22.5 kmh - -
Humidity 59% 61% 57% 58%
Pressure 30.58 in1035.6 mb 30.64 in1037.6 mb 30.58 in1035.6 mb -
Hour Temp Dew Point Humidity Winds Wind Gusts Pressure Precip Precip Rate Daily Precip Total
02:30 AM 30.6°F-0.8°C 18.0°F-7.8°C 59% 10.0 mph NNW16.1 kmh NNW 12.0 mph19.3 kmh 30.58 in1035.6 mb 0.00 in0.0 mm 0.00 in0.0 mm 0.00 in0.0 mm
02:25 AM 30.6°F-0.8°C 17.2°F-8.2°C 57% 10.0 mph NNW16.1 kmh NNW 14.0 mph22.5 kmh 30.59 in1035.9 mb 0.00 in0.0 mm 0.00 in0.0 mm 0.00 in0.0 mm
02:20 AM 30.5°F-0.8°C 17.5°F-8.1°C 58% 11.0 mph NW17.7 kmh NW 13.0 mph20.9 kmh 30.59 in1035.9 mb 0.00 in0.0 mm 0.00 in0.0 mm 0.00 in0.0 mm
02:15 AM 30.5°F-0.8°C 17.5°F-8.1°C 58% 10.0 mph NNW16.1 kmh NNW 12.0 mph19.3 kmh 30.59 in1035.9 mb 0.00 in0.0 mm 0.00 in0.0 mm 0.00 in0.0 mm
02:10 AM 30.6°F-0.8°C 18.0°F-7.8°C 59% 6.0 mph NW9.7 kmh NW 11.0 mph17.7 kmh 30.60 in1036.2 mb 0.00 in0.0 mm 0.00 in0.0 mm 0.00 in0.0 mm
02:05 AM 30.6°F-0.8°C 18.0°F-7.8°C 59% 6.0 mph NW9.7 kmh NW 11.0 mph17.7 kmh 30.60 in1036.2 mb 0.00 in0.0 mm 0.00 in0.0 mm 0.00 in0.0 mm
02:00 AM 30.4°F-0.9°C 18.2°F-7.7°C 60% 8.0 mph NW12.9 kmh NW 9.0 mph14.5 kmh 30.60 in1036.2 mb 0.00 in0.0 mm 0.00 in0.0 mm 0.00 in0.0 mm
01:55 AM 30.3°F-0.9°C 17.7°F-7.9°C 59% 7.0 mph NW11.3 kmh NW 9.0 mph14.5 kmh 30.60 in1036.2 mb 0.00 in0.0 mm 0.00 in0.0 mm 0.00 in0.0 mm
01:50 AM 30.2°F-1.0°C 17.6°F-8.0°C 59% 5.0 mph NW8.0 kmh NW 8.0 mph12.9 kmh 30.60 in1036.2 mb 0.00 in0.0 mm 0.00 in0.0 mm 0.00 in0.0 mm
01:45 AM 30.2°F-1.0°C 17.2°F-8.2°C 58% 8.0 mph NW12.9 kmh NW 8.0 mph12.9 kmh 30.60 in1036.2 mb 0.00 in0.0 mm 0.00 in0.0 mm 0.00 in0.0 mm
01:40 AM 30.2°F-1.0°C 16.8°F-8.4°C 57% 6.0 mph W9.7 kmh W 8.0 mph12.9 kmh 30.61 in1036.6 mb 0.00 in0.0 mm 0.00 in0.0 mm 0.00 in0.0 mm
01:35 AM 30.3°F-0.9°C 16.9°F-8.4°C 57% 6.0 mph W9.7 kmh W 8.0 mph12.9 kmh 30.61 in1036.6 mb 0.00 in0.0 mm 0.00 in0.0 mm 0.00 in0.0 mm
01:30 AM 30.3°F-0.9°C 17.7°F-7.9°C 59% 7.0 mph W11.3 kmh W 7.0 mph11.3 kmh 30.61 in1036.6 mb 0.00 in0.0 mm 0.00 in0.0 mm 0.00 in0.0 mm
01:25 AM 30.1°F-1.1°C 16.7°F-8.5°C 57% 4.0 mph W6.4 kmh W 7.0 mph11.3 kmh 30.61 in1036.6 mb 0.00 in0.0 mm 0.00 in0.0 mm 0.00 in0.0 mm
01:20 AM 30.1°F-1.1°C 17.1°F-8.3°C 58% 4.0 mph W6.4 kmh W 7.0 mph11.3 kmh 30.61 in1036.6 mb 0.00 in0.0 mm 0.00 in0.0 mm 0.00 in0.0 mm
01:15 AM 30.1°F-1.1°C 16.7°F-8.5°C 57% 4.0 mph W6.4 kmh W 7.0 mph11.3 kmh 30.61 in1036.6 mb 0.00 in0.0 mm 0.00 in0.0 mm 0.00 in0.0 mm
01:10 AM 30.2°F-1.0°C 17.2°F-8.2°C 58% 3.0 mph W4.8 kmh W 7.0 mph11.3 kmh 30.61 in1036.6 mb 0.00 in0.0 mm 0.00 in0.0 mm 0.00 in0.0 mm
01:05 AM 30.2°F-1.0°C 17.2°F-8.2°C 58% 6.0 mph W9.7 kmh W 7.0 mph11.3 kmh 30.61 in1036.6 mb 0.00 in0.0 mm 0.00 in0.0 mm 0.00 in0.0 mm
01:00 AM 30.2°F-1.0°C 17.2°F-8.2°C 58% 4.0 mph W6.4 kmh W 6.0 mph9.7 kmh 30.61 in1036.6 mb 0.00 in0.0 mm 0.00 in0.0 mm 0.00 in0.0 mm
12:55 AM 30.2°F-1.0°C 17.2°F-8.2°C 58% 4.0 mph W6.4 kmh W 7.0 mph11.3 kmh 30.62 in1036.9 mb 0.00 in0.0 mm 0.00 in0.0 mm 0.00 in0.0 mm
12:50 AM 30.1°F-1.1°C 17.5°F-8.1°C 59% 4.0 mph W6.4 kmh W 7.0 mph11.3 kmh 30.62 in1036.9 mb 0.00 in0.0 mm 0.00 in0.0 mm 0.00 in0.0 mm
12:45 AM 30.1°F-1.1°C 17.5°F-8.1°C 59% 4.0 mph W6.4 kmh W 6.0 mph9.7 kmh 30.62 in1036.9 mb 0.00 in0.0 mm 0.00 in0.0 mm 0.00 in0.0 mm
12:40 AM 30.0°F-1.1°C 17.8°F-7.9°C 60% 4.0 mph W6.4 kmh W 7.0 mph11.3 kmh 30.62 in1036.9 mb 0.00 in0.0 mm 0.00 in0.0 mm 0.00 in0.0 mm
12:35 AM 29.9°F-1.2°C 18.1°F-7.7°C 61% 3.0 mph W4.8 kmh W 4.0 mph6.4 kmh 30.62 in1036.9 mb 0.00 in0.0 mm 0.00 in0.0 mm 0.00 in0.0 mm
12:30 AM 29.9°F-1.2°C 17.3°F-8.2°C 59% 3.0 mph W4.8 kmh W 4.0 mph6.4 kmh 30.62 in1036.9 mb 0.00 in0.0 mm 0.00 in0.0 mm 0.00 in0.0 mm
12:25 AM 29.8°F-1.2°C 16.8°F-8.4°C 58% 2.0 mph W3.2 kmh W 4.0 mph6.4 kmh 30.63 in1037.3 mb 0.00 in0.0 mm 0.00 in0.0 mm 0.00 in0.0 mm
12:20 AM 29.9°F-1.2°C 16.5°F-8.6°C 57% 3.0 mph W4.8 kmh W 4.0 mph6.4 kmh 30.63 in1037.3 mb 0.00 in0.0 mm 0.00 in0.0 mm 0.00 in0.0 mm
12:15 AM 30.0°F-1.1°C 16.6°F-8.6°C 57% 2.0 mph W3.2 kmh W 2.0 mph3.2 kmh 30.64 in1037.6 mb 0.00 in0.0 mm 0.00 in0.0 mm 0.00 in0.0 mm
12:10 AM 30.1°F-1.1°C 16.7°F-8.5°C 57% Calm Calm 6.0 mph9.7 kmh 30.64 in1037.6 mb 0.00 in0.0 mm 0.00 in0.0 mm 0.00 in0.0 mm
12:05 AM 30.1°F-1.1°C 16.7°F-8.5°C 57% 3.0 mph W4.8 kmh W 6.0 mph9.7 kmh 30.64 in1037.6 mb 0.00 in0.0 mm 0.00 in0.0 mm 0.00 in0.0 mm
12:00 AM 30.2°F-1.0°C 17.2°F-8.2°C 58% 2.0 mph W3.2 kmh W 3.0 mph4.8 kmh 30.64 in1037.6 mb 0.00 in0.0 mm 0.00 in0.0 mm 0.00 in0.0 mm